Time;durP1;ratioP1;P1;durP2;ratioP2;P2;SDS_P1;SDS_P2;PMS_P1;PMS_P2;Temp;Humidity;BMP_temperature;BMP_pressure;BME280_temperature;BME280_humidity;BME280_pressure;Samples;Min_cycle;Max_cycle;Signal;HPM_P1;HPM_P2
2021/04/04 00:01:07;;;;;;;24.50;4.80;;;5.50;99.90;;;;;;5026121;28;20045;-89
2021/04/04 00:03:34;;;;;;;18.52;5.25;;;5.50;99.90;;;;;;5030928;28;20126;-89
2021/04/04 00:06:00;;;;;;;24.13;5.32;;;5.50;99.90;;;;;;5032094;28;20482;-88
2021/04/04 00:08:27;;;;;;;22.20;5.53;;;5.50;99.90;;;;;;5040118;28;20037;-88
2021/04/04 00:10:54;;;;;;;30.92;6.25;;;5.40;99.90;;;;;;5034007;28;20041;-89
2021/04/04 00:13:21;;;;;;;18.95;4.90;;;5.40;99.90;;;;;;5035245;28;20056;-88
2021/04/04 00:15:47;;;;;;;18.98;5.35;;;5.30;99.90;;;;;;5035756;28;20045;-89
2021/04/04 00:18:14;;;;;;;24.00;5.50;;;5.30;99.90;;;;;;5033071;28;20057;-89
2021/04/04 00:20:40;;;;;;;25.92;5.47;;;5.30;99.90;;;;;;5036368;28;20335;-88
2021/04/04 00:23:06;;;;;;;27.80;5.65;;;5.30;99.90;;;;;;5033859;28;20056;-88
2021/04/04 00:25:33;;;;;;;25.55;5.72;;;5.30;99.90;;;;;;5037346;28;20386;-88
2021/04/04 00:28:00;;;;;;;23.92;6.15;;;5.30;99.90;;;;;;5033265;28;20532;-88
2021/04/04 00:30:26;;;;;;;23.02;5.95;;;5.20;99.90;;;;;;5029374;28;20639;-88
2021/04/04 00:32:53;;;;;;;28.65;5.80;;;5.20;99.90;;;;;;5027104;28;20041;-88
2021/04/04 00:35:21;;;;;;;26.70;6.07;;;5.20;99.90;;;;;;5025278;28;20581;-88
2021/04/04 00:37:50;;;;;;;20.87;5.43;;;5.20;99.90;;;;;;5034936;28;20459;-88
2021/04/04 00:40:21;;;;;;;;;;;5.20;99.90;;;;;;5035978;28;20477;-89
2021/04/04 00:42:48;;;;;;;26.95;5.85;;;5.10;99.90;;;;;;5029636;28;19925;-88
2021/04/04 00:45:17;;;;;;;23.42;5.47;;;5.10;99.90;;;;;;5040138;28;20048;-89
2021/04/04 00:47:45;;;;;;;21.15;5.30;;;5.10;99.90;;;;;;5032527;28;20363;-88
2021/04/04 00:50:12;;;;;;;26.60;5.47;;;5.00;99.90;;;;;;5021944;28;20076;-88
2021/04/04 00:52:39;;;;;;;21.65;5.35;;;5.00;99.90;;;;;;5033502;28;20115;-88
2021/04/04 00:55:08;;;;;;;27.77;5.38;;;5.00;99.90;;;;;;5035408;28;20792;-88
2021/04/04 00:57:35;;;;;;;24.05;5.78;;;5.00;99.90;;;;;;5033080;28;20049;-89
2021/04/04 01:00:05;;;;;;;25.85;6.13;;;4.90;99.90;;;;;;5037822;28;20045;-89
2021/04/04 01:02:32;;;;;;;21.10;6.10;;;4.90;99.90;;;;;;5030207;28;20364;-88
2021/04/04 01:05:01;;;;;;;19.00;5.10;;;4.90;99.90;;;;;;5032558;28;20315;-88
2021/04/04 01:07:28;;;;;;;19.77;5.50;;;4.90;99.90;;;;;;5015509;28;20057;-89
2021/04/04 01:09:55;;;;;;;17.38;5.22;;;4.90;99.90;;;;;;5033269;28;20285;-88
2021/04/04 01:12:52;;;;;;;20.42;5.18;;;4.90;99.90;;;;;;5023683;28;20076;-88
2021/04/04 01:15:28;;;;;;;18.10;5.00;;;4.80;99.90;;;;;;5028223;28;20041;-89
2021/04/04 01:17:56;;;;;;;24.40;5.72;;;4.80;99.90;;;;;;5034119;28;20105;-89
2021/04/04 01:20:40;;;;;;;24.83;6.18;;;4.80;99.90;;;;;;5021179;28;20047;-88
2021/04/04 01:24:01;;;;;;;27.92;6.03;;;4.80;99.90;;;;;;5020251;28;20494;-88
2021/04/04 01:26:53;;;;;;;24.35;5.05;;;4.80;99.90;;;;;;4981393;28;20049;-88
2021/04/04 01:29:22;;;;;;;22.58;5.22;;;4.80;99.90;;;;;;4958347;28;20056;-88
2021/04/04 01:31:51;;;;;;;27.30;5.53;;;4.80;99.90;;;;;;4953778;28;20070;-88
2021/04/04 01:34:21;;;;;;;22.55;5.20;;;4.80;99.90;;;;;;4970680;28;20046;-88
2021/04/04 01:36:51;;;;;;;27.30;6.22;;;4.80;99.90;;;;;;4958119;28;20053;-88
2021/04/04 01:39:20;;;;;;;20.85;5.20;;;4.80;99.90;;;;;;4954912;28;20138;-88
2021/04/04 01:41:48;;;;;;;;;;;4.70;99.90;;;;;;4951713;28;20051;-89
2021/04/04 01:44:21;;;;;;;17.52;4.82;;;4.70;99.90;;;;;;4964342;28;20324;-88
2021/04/04 01:46:49;;;;;;;23.13;5.72;;;4.70;99.90;;;;;;4960545;28;20472;-88
2021/04/04 01:49:17;;;;;;;24.17;5.85;;;4.70;99.90;;;;;;4953569;28;20468;-88
2021/04/04 01:51:45;;;;;;;23.53;6.03;;;4.70;99.90;;;;;;4953538;28;20133;-89
2021/04/04 01:54:15;;;;;;;16.70;5.30;;;4.70;99.90;;;;;;4954938;28;20047;-88
2021/04/04 01:56:42;;;;;;;27.50;7.43;;;4.70;99.90;;;;;;4950298;28;20133;-89
2021/04/04 01:59:10;;;;;;;34.17;7.05;;;4.60;99.90;;;;;;4961853;28;20058;-88
2021/04/04 02:01:38;;;;;;;24.77;5.70;;;4.60;99.90;;;;;;5032155;28;20395;-88
2021/04/04 02:04:06;;;;;;;19.65;5.65;;;4.60;99.90;;;;;;5028608;28;20041;-88
2021/04/04 02:06:36;;;;;;;24.95;5.82;;;4.60;99.90;;;;;;5028029;28;20072;-88
2021/04/04 02:09:13;;;;;;;22.80;5.40;;;4.60;99.90;;;;;;5020105;28;20132;-89
2021/04/04 02:11:42;;;;;;;20.73;4.63;;;4.60;99.90;;;;;;5023064;28;20053;-89
2021/04/04 02:14:14;;;;;;;22.48;6.20;;;4.60;99.90;;;;;;5032423;28;20064;-88
2021/04/04 02:16:45;;;;;;;25.02;5.88;;;4.60;99.90;;;;;;5027944;28;20050;-89
2021/04/04 02:19:13;;;;;;;18.67;5.32;;;4.60;99.90;;;;;;5021217;28;20072;-88
2021/04/04 02:21:42;;;;;;;22.87;5.13;;;4.60;99.90;;;;;;5046714;28;20498;-89
2021/04/04 02:24:10;;;;;;;15.38;5.78;;;4.60;99.90;;;;;;5029353;28;20047;-89
2021/04/04 02:26:36;;;;;;;16.35;5.40;;;4.50;99.90;;;;;;5031529;28;20090;-88
2021/04/04 02:29:26;;;;;;;21.83;5.45;;;4.50;99.90;;;;;;5023933;28;20038;-88
2021/04/04 02:32:14;;;;;;;20.17;5.60;;;4.50;99.90;;;;;;4930829;28;20039;-89
2021/04/04 02:34:44;;;;;;;23.40;6.05;;;4.60;99.90;;;;;;4949325;28;20063;-89
2021/04/04 02:37:14;;;;;;;28.25;6.30;;;4.60;99.90;;;;;;4952109;28;20133;-89
2021/04/04 02:39:56;;;;;;;23.00;6.05;;;4.50;99.90;;;;;;4951791;28;20050;-89
2021/04/04 02:42:25;;;;;;;24.45;6.47;;;4.50;99.90;;;;;;4946264;28;20050;-89
2021/04/04 02:44:54;;;;;;;25.38;5.97;;;4.60;99.90;;;;;;4943630;28;20582;-89
2021/04/04 02:47:27;;;;;;;25.73;5.40;;;4.50;99.90;;;;;;4971646;28;20053;-89
2021/04/04 02:49:56;;;;;;;21.70;5.50;;;4.50;99.90;;;;;;4989330;28;20045;-89
2021/04/04 02:52:26;;;;;;;21.63;6.18;;;4.60;99.90;;;;;;5032700;28;20498;-88
2021/04/04 02:54:55;;;;;;;25.77;6.10;;;4.60;99.90;;;;;;5031947;28;20040;-89
2021/04/04 02:57:27;;;;;;;19.63;6.82;;;4.60;99.90;;;;;;5021043;28;20045;-89
2021/04/04 02:59:58;;;;;;;23.95;6.15;;;4.60;99.90;;;;;;5030312;28;20045;-89
2021/04/04 03:02:27;;;;;;;22.23;6.57;;;4.60;99.90;;;;;;5030620;28;20397;-88
2021/04/04 03:04:55;;;;;;;;;;;4.60;99.90;;;;;;5030544;28;20049;-88
2021/04/04 03:07:24;;;;;;;18.60;5.75;;;4.60;99.90;;;;;;5031700;28;19928;-88
2021/04/04 03:09:52;;;;;;;;;;;4.60;99.90;;;;;;5032375;28;20071;-89
2021/04/04 03:12:21;;;;;;;20.95;6.05;;;4.50;99.90;;;;;;5030244;28;19988;-88
2021/04/04 03:14:49;;;;;;;25.17;5.32;;;4.50;99.90;;;;;;5030313;28;20088;-88
2021/04/04 03:17:18;;;;;;;13.55;4.72;;;4.50;99.90;;;;;;5029610;28;20044;-89
2021/04/04 03:19:45;;;;;;;;;;;4.50;99.90;;;;;;5031398;28;20067;-89
2021/04/04 03:22:13;;;;;;;16.80;5.75;;;4.50;99.90;;;;;;5032016;28;19927;-88
2021/04/04 03:24:41;;;;;;;21.05;5.28;;;4.50;99.90;;;;;;5031117;28;20517;-89
2021/04/04 03:27:09;;;;;;;25.55;6.68;;;4.40;99.90;;;;;;5053499;28;20087;-89
2021/04/04 03:29:38;;;;;;;22.08;5.90;;;4.40;99.90;;;;;;5032245;28;20048;-89
2021/04/04 03:32:05;;;;;;;27.75;6.30;;;4.40;99.90;;;;;;5019500;28;20068;-88
2021/04/04 03:34:33;;;;;;;18.15;6.50;;;4.50;99.90;;;;;;5017128;28;20046;-89
2021/04/04 03:37:00;;;;;;;24.27;6.88;;;4.40;99.90;;;;;;5031182;28;20053;-88
2021/04/04 03:39:28;;;;;;;16.35;5.10;;;4.40;99.90;;;;;;5049342;28;20048;-88
2021/04/04 03:41:57;;;;;;;26.75;5.82;;;4.40;99.90;;;;;;5032063;28;20033;-88
2021/04/04 03:44:30;;;;;;;20.92;6.00;;;4.40;99.90;;;;;;5027919;28;20049;-89
2021/04/04 03:46:58;;;;;;;21.92;5.95;;;4.40;99.90;;;;;;5029553;28;20394;-88
2021/04/04 03:49:25;;;;;;;27.10;6.07;;;4.30;99.90;;;;;;5028149;28;20037;-88
2021/04/04 03:51:58;;;;;;;24.75;6.35;;;4.30;99.90;;;;;;5029613;28;20148;-89
2021/04/04 03:54:25;;;;;;;18.40;6.00;;;4.30;99.90;;;;;;5029813;28;20478;-89
2021/04/04 03:56:54;;;;;;;25.35;6.18;;;4.30;99.90;;;;;;5031380;28;20053;-88
2021/04/04 03:59:23;;;;;;;18.67;5.45;;;4.30;99.90;;;;;;5032283;28;20052;-89
2021/04/04 04:01:51;;;;;;;26.70;5.95;;;4.30;99.90;;;;;;5043853;28;20462;-89
2021/04/04 04:04:20;;;;;;;19.27;6.65;;;4.30;99.90;;;;;;5042982;28;20052;-88
2021/04/04 04:06:48;;;;;;;27.63;6.43;;;4.30;99.90;;;;;;5024368;28;20073;-89
2021/04/04 04:09:17;;;;;;;24.10;6.53;;;4.20;99.90;;;;;;5027656;28;20045;-88
2021/04/04 04:11:49;;;;;;;22.63;6.40;;;4.20;99.90;;;;;;5030594;28;20053;-88
2021/04/04 04:14:19;;;;;;;26.00;7.10;;;4.20;99.90;;;;;;5029485;28;20128;-88
2021/04/04 04:16:45;;;;;;;26.77;6.88;;;4.20;99.90;;;;;;5028402;28;20115;-89
2021/04/04 04:19:12;;;;;;;21.17;7.55;;;4.20;99.90;;;;;;5038665;28;20044;-89
2021/04/04 04:21:42;;;;;;;22.25;7.00;;;4.10;99.90;;;;;;5034949;28;20049;-89
2021/04/04 04:24:17;;;;;;;24.10;6.90;;;4.10;99.90;;;;;;5030197;28;20116;-89
2021/04/04 04:26:49;;;;;;;30.92;7.63;;;4.10;99.90;;;;;;5031938;28;20041;-88
2021/04/04 04:29:17;;;;;;;25.98;6.90;;;4.20;99.90;;;;;;5038154;28;20052;-89
2021/04/04 04:31:47;;;;;;;36.63;7.53;;;4.20;99.90;;;;;;5029936;28;20053;-89
2021/04/04 04:34:14;;;;;;;34.83;7.38;;;4.10;99.90;;;;;;5049017;28;20548;-89
2021/04/04 04:36:42;;;;;;;25.35;6.78;;;4.10;99.90;;;;;;5036582;28;20469;-89
2021/04/04 04:39:10;;;;;;;20.45;6.82;;;4.10;99.90;;;;;;5035547;28;20132;-89
2021/04/04 04:41:44;;;;;;;22.33;6.90;;;4.10;99.90;;;;;;5035288;28;20049;-89
2021/04/04 04:44:14;;;;;;;27.02;7.22;;;4.10;99.90;;;;;;5030635;28;20128;-89
2021/04/04 04:46:43;;;;;;;23.30;7.43;;;4.10;99.90;;;;;;5032248;28;20367;-89
2021/04/04 04:49:10;;;;;;;28.70;7.65;;;4.10;99.90;;;;;;5048276;28;20049;-89
2021/04/04 04:51:37;;;;;;;25.02;6.53;;;4.10;99.90;;;;;;5031052;28;20481;-89
2021/04/04 04:54:04;;;;;;;30.35;7.47;;;4.10;99.90;;;;;;5028540;28;20045;-88
2021/04/04 04:56:32;;;;;;;26.10;7.40;;;4.10;99.90;;;;;;5030663;28;20037;-89
2021/04/04 04:59:05;;;;;;;23.52;6.90;;;4.10;99.90;;;;;;5029073;28;20078;-88
2021/04/04 05:01:41;;;;;;;33.53;7.80;;;4.00;99.90;;;;;;5034558;28;20068;-88
2021/04/04 05:04:08;;;;;;;30.25;7.95;;;4.00;99.90;;;;;;5028334;28;20045;-89
2021/04/04 05:06:36;;;;;;;24.17;6.55;;;4.00;99.90;;;;;;5032021;28;20099;-89
2021/04/04 05:09:06;;;;;;;27.27;9.00;;;4.00;99.90;;;;;;5033752;28;20047;-89
2021/04/04 05:11:39;;;;;;;24.73;7.47;;;4.00;99.90;;;;;;5030238;28;20502;-89
2021/04/04 05:14:05;;;;;;;23.30;7.80;;;4.00;99.90;;;;;;5034344;28;20132;-89
2021/04/04 05:16:32;;;;;;;29.58;7.68;;;4.00;99.90;;;;;;5036461;28;20060;-89
2021/04/04 05:18:59;;;;;;;24.75;7.75;;;3.90;99.90;;;;;;5034489;28;20056;-89
2021/04/04 05:21:30;;;;;;;31.33;9.52;;;3.90;99.90;;;;;;5035572;28;20056;-89
2021/04/04 05:24:04;;;;;;;20.73;7.82;;;3.90;99.90;;;;;;5033088;28;20079;-89
2021/04/04 05:26:36;;;;;;;17.58;7.30;;;3.90;99.90;;;;;;5044444;28;20045;-89
2021/04/04 05:29:05;;;;;;;22.90;6.82;;;3.90;99.90;;;;;;5032468;28;20045;-89
2021/04/04 05:31:32;;;;;;;29.17;7.72;;;3.90;99.90;;;;;;5023499;28;20045;-89
2021/04/04 05:34:02;;;;;;;24.98;7.70;;;3.90;99.90;;;;;;5036008;28;20119;-89
2021/04/04 05:36:29;;;;;;;25.58;7.88;;;3.90;99.90;;;;;;5032845;28;20071;-89
2021/04/04 05:38:59;;;;;;;23.13;8.07;;;3.90;99.90;;;;;;5025639;28;20156;-89
2021/04/04 05:41:27;;;;;;;;;;;3.90;99.90;;;;;;5033895;28;20112;-89
2021/04/04 05:43:56;;;;;;;24.90;7.97;;;3.80;99.90;;;;;;5032868;28;19920;-90
2021/04/04 05:46:36;;;;;;;26.35;8.65;;;3.80;99.90;;;;;;5028476;28;20368;-90
2021/04/04 05:49:14;;;;;;;28.73;9.05;;;3.80;99.90;;;;;;5033605;28;20045;-90
2021/04/04 05:51:58;;;;;;;24.85;8.00;;;3.90;99.90;;;;;;5021994;28;20056;-89
2021/04/04 05:54:59;;;;;;;27.50;7.75;;;3.80;99.90;;;;;;5028389;28;20072;-89
2021/04/04 05:57:35;;;;;;;24.38;8.20;;;3.90;99.90;;;;;;5022962;28;20049;-88
2021/04/04 06:00:06;;;;;;;29.75;8.20;;;3.90;99.90;;;;;;5034292;28;20047;-90
2021/04/04 06:02:57;;;;;;;30.13;8.85;;;3.90;99.90;;;;;;5027751;28;20466;-89
2021/04/04 06:05:30;;;;;;;28.63;7.75;;;3.90;99.90;;;;;;5015112;28;20080;-89
2021/04/04 06:08:25;;;;;;;27.92;8.15;;;3.90;99.90;;;;;;5048412;28;20043;-89
2021/04/04 06:11:12;;;;;;;25.25;8.50;;;3.90;99.90;;;;;;5028690;28;20075;-89
2021/04/04 06:13:56;;;;;;;27.70;8.35;;;3.90;99.90;;;;;;5030779;28;20048;-89
2021/04/04 06:16:38;;;;;;;23.88;7.82;;;3.90;99.90;;;;;;5031590;28;20137;-90
2021/04/04 06:19:22;;;;;;;27.77;8.23;;;3.90;99.90;;;;;;5024527;28;20356;-89
2021/04/04 06:22:27;;;;;;;20.85;8.00;;;3.90;99.90;;;;;;5027431;28;20037;-89
2021/04/04 06:25:01;;;;;;;29.92;9.07;;;4.00;99.90;;;;;;4995001;28;20434;-89
2021/04/04 06:27:50;;;;;;;23.70;7.50;;;4.00;99.90;;;;;;4992455;28;20056;-89
2021/04/04 06:31:09;;;;;;;34.80;9.20;;;4.00;99.90;;;;;;4975078;28;20233;-89
2021/04/04 06:33:13;;;;;;;25.77;8.90;;;4.10;99.90;;;;;;4980842;28;20042;-89
2021/04/04 06:35:48;;;;;;;27.02;7.53;;;4.10;99.90;;;;;;4977907;28;20128;-89
2021/04/04 06:38:48;;;;;;;23.13;7.80;;;4.20;99.90;;;;;;4969133;28;20035;-89
2021/04/04 06:41:52;;;;;;;24.38;7.80;;;4.30;99.90;;;;;;4976170;28;20483;-89
2021/04/04 06:44:28;;;;;;;22.15;7.10;;;4.30;99.90;;;;;;4986142;28;20105;-90
2021/04/04 06:46:59;;;;;;;27.25;8.13;;;4.40;99.90;;;;;;4976341;28;20460;-91
2021/04/04 06:49:48;;;;;;;26.23;7.97;;;4.50;99.90;;;;;;4969163;28;20826;-90
2021/04/04 06:52:51;;;;;;;23.55;7.68;;;4.60;99.90;;;;;;4975458;28;20124;-90
2021/04/04 06:55:35;;;;;;;25.80;8.52;;;4.60;99.90;;;;;;4986474;28;20064;-89
2021/04/04 06:58:28;;;;;;;29.42;7.65;;;4.70;99.90;;;;;;4970902;28;20046;-89
2021/04/04 07:01:04;;;;;;;23.23;8.35;;;4.80;99.90;;;;;;4944664;28;20057;-89
2021/04/04 07:03:46;;;;;;;34.30;9.15;;;4.80;99.90;;;;;;4963769;28;20139;-89
2021/04/04 07:06:31;;;;;;;20.70;7.72;;;5.00;99.90;;;;;;4967998;28;20098;-89
2021/04/04 07:09:29;;;;;;;23.45;8.38;;;5.00;99.90;;;;;;4967929;28;20053;-89
2021/04/04 07:12:23;;;;;;;25.27;7.93;;;5.20;99.90;;;;;;4931739;28;20048;-88
2021/04/04 07:15:09;;;;;;;29.48;8.40;;;5.30;99.90;;;;;;4913536;29;20044;-87
2021/04/04 07:18:15;;;;;;;27.35;7.78;;;5.40;99.90;;;;;;4927984;28;20046;-89
2021/04/04 07:21:08;;;;;;;19.77;7.72;;;5.50;99.90;;;;;;4933244;28;20618;-88
2021/04/04 07:23:35;;;;;;;38.83;9.70;;;5.60;99.90;;;;;;4927528;28;20056;-88
2021/04/04 07:26:16;;;;;;;25.02;7.43;;;5.70;99.90;;;;;;4939965;28;20226;-89
2021/04/04 07:29:23;;;;;;;22.67;7.72;;;5.90;99.90;;;;;;4926735;29;20134;-89
2021/04/04 07:32:01;;;;;;;22.23;8.05;;;6.00;99.90;;;;;;4879392;29;20534;-88
2021/04/04 07:34:34;;;;;;;25.92;7.80;;;6.10;99.90;;;;;;4875233;29;20355;-88
2021/04/04 07:37:15;;;;;;;23.65;7.45;;;6.20;99.90;;;;;;4895519;29;20051;-88
2021/04/04 07:39:49;;;;;;;34.78;8.27;;;6.30;99.90;;;;;;4930610;29;20103;-89
2021/04/04 07:42:22;;;;;;;25.02;7.82;;;6.50;99.90;;;;;;4914275;29;20122;-89
2021/04/04 07:45:18;;;;;;;23.48;8.73;;;6.60;99.90;;;;;;4915233;29;20086;-89
2021/04/04 07:48:23;;;;;;;27.30;7.70;;;6.80;99.90;;;;;;4945867;28;20058;-89
2021/04/04 07:51:04;;;;;;;21.02;7.43;;;7.00;99.90;;;;;;4945098;28;20420;-86
2021/04/04 07:53:42;;;;;;;20.15;7.88;;;7.00;99.90;;;;;;4932113;29;20047;-87
2021/04/04 07:56:22;;;;;;;23.92;8.10;;;7.20;99.90;;;;;;4918053;29;20534;-88
2021/04/04 07:59:20;;;;;;;26.75;8.82;;;7.40;99.90;;;;;;4943876;28;20534;-86
2021/04/04 08:02:11;;;;;;;23.23;7.97;;;7.50;99.90;;;;;;4890810;29;20059;-87
2021/04/04 08:04:43;;;;;;;24.67;8.57;;;7.70;99.90;;;;;;4887907;29;20060;-87
2021/04/04 08:07:18;;;;;;;25.73;8.95;;;7.80;99.90;;;;;;4892403;29;20075;-87
2021/04/04 08:10:12;;;;;;;24.40;8.90;;;7.90;99.90;;;;;;4949925;28;20141;-87
2021/04/04 08:13:05;;;;;;;25.40;9.63;;;8.10;99.90;;;;;;4941156;28;20142;-87
2021/04/04 08:15:44;;;;;;;23.98;10.02;;;8.20;99.90;;;;;;4946352;28;20069;-87
2021/04/04 08:18:11;;;;;;;26.15;9.68;;;8.30;99.90;;;;;;4945872;28;20131;-87
2021/04/04 08:20:45;;;;;;;28.55;10.20;;;8.40;99.90;;;;;;4941565;28;20047;-87
2021/04/04 08:23:23;;;;;;;26.38;11.10;;;8.50;99.90;;;;;;4933346;29;20775;-87
2021/04/04 08:26:07;;;;;;;29.10;9.98;;;8.60;99.90;;;;;;4938997;29;20055;-87
2021/04/04 08:29:20;;;;;;;28.10;9.93;;;8.70;99.90;;;;;;4936785;28;20051;-87
2021/04/04 08:31:51;;;;;;;26.83;10.63;;;8.90;99.90;;;;;;4933184;29;20054;-87
2021/04/04 08:34:44;;;;;;;37.92;11.50;;;8.90;99.90;;;;;;4937218;28;20378;-87
2021/04/04 08:37:21;;;;;;;22.00;9.43;;;9.00;99.90;;;;;;4954631;28;20059;-87
2021/04/04 08:39:54;;;;;;;18.60;8.85;;;9.10;99.90;;;;;;5027432;28;20059;-87
2021/04/04 08:42:22;;;;;;;28.42;11.07;;;9.30;99.90;;;;;;5032470;28;20470;-87
2021/04/04 08:45:01;;;;;;;30.60;11.32;;;9.40;99.90;;;;;;5034676;28;20061;-88
2021/04/04 08:47:32;;;;;;;24.27;9.82;;;9.50;99.90;;;;;;5032235;28;20703;-87
2021/04/04 08:50:06;;;;;;;29.50;11.10;;;9.60;99.90;;;;;;5030423;28;20060;-87
2021/04/04 08:52:43;;;;;;;20.08;9.88;;;9.70;99.90;;;;;;5026620;28;20049;-87
2021/04/04 08:55:15;;;;;;;30.63;10.60;;;9.80;99.90;;;;;;5035754;28;20049;-87
2021/04/04 08:57:47;;;;;;;24.42;9.70;;;10.00;99.90;;;;;;5027707;28;20052;-88
2021/04/04 09:00:15;;;;;;;21.70;9.57;;;10.10;99.90;;;;;;5037444;28;20358;-88
2021/04/04 09:02:52;;;;;;;22.25;9.98;;;10.20;99.90;;;;;;5022488;28;20136;-87
2021/04/04 09:05:25;;;;;;;27.08;10.13;;;10.20;99.90;;;;;;5031347;28;20053;-87
2021/04/04 09:07:55;;;;;;;22.77;10.10;;;10.20;99.90;;;;;;5051687;28;20049;-88
2021/04/04 09:10:23;;;;;;;24.10;10.57;;;10.30;99.90;;;;;;5037223;28;20060;-87
2021/04/04 09:12:51;;;;;;;25.55;10.48;;;10.30;99.90;;;;;;5034487;28;20041;-88
2021/04/04 09:15:21;;;;;;;31.25;10.55;;;10.40;99.90;;;;;;5035133;28;20052;-87
2021/04/04 09:17:54;;;;;;;26.73;10.82;;;10.50;99.90;;;;;;5033541;28;21149;-87
2021/04/04 09:20:34;;;;;;;21.65;11.15;;;10.60;99.90;;;;;;5034936;28;21811;-88
2021/04/04 09:23:03;;;;;;;25.88;11.13;;;10.70;99.70;;;;;;5027828;28;20520;-88
2021/04/04 09:25:31;;;;;;;28.27;11.00;;;10.80;99.20;;;;;;5036941;28;20494;-87
2021/04/04 09:27:59;;;;;;;19.60;9.13;;;10.80;99.50;;;;;;5033203;28;20048;-88
2021/04/04 09:30:36;;;;;;;23.35;10.52;;;10.90;99.50;;;;;;5048713;28;20283;-87
2021/04/04 09:33:06;;;;;;;23.45;10.43;;;11.00;99.20;;;;;;5032783;28;20393;-86
2021/04/04 09:35:35;;;;;;;20.88;9.73;;;11.10;99.30;;;;;;5032721;28;20041;-88
2021/04/04 09:38:08;;;;;;;27.92;11.02;;;11.20;99.40;;;;;;5028411;28;20497;-88
2021/04/04 09:40:37;;;;;;;20.20;11.25;;;11.30;99.30;;;;;;5029638;28;20125;-87
2021/04/04 09:43:14;;;;;;;26.48;12.57;;;11.40;99.10;;;;;;5027628;28;20056;-88
2021/04/04 09:45:42;;;;;;;30.05;11.43;;;11.40;98.70;;;;;;5032740;28;20049;-88
2021/04/04 09:48:26;;;;;;;22.48;10.73;;;11.50;98.70;;;;;;5037967;28;20494;-87
2021/04/04 09:51:14;;;;;;;26.85;12.25;;;11.70;98.80;;;;;;5034695;28;20130;-87
2021/04/04 09:53:47;;;;;;;23.90;12.40;;;11.70;97.90;;;;;;5033784;28;20045;-88
2021/04/04 09:56:27;;;;;;;24.20;11.93;;;11.60;97.80;;;;;;5026062;28;20044;-87
2021/04/04 09:58:53;;;;;;;22.88;11.35;;;11.70;98.10;;;;;;5030082;28;20080;-87
2021/04/04 10:01:28;;;;;;;25.55;13.43;;;11.70;98.00;;;;;;5046546;28;20135;-88
2021/04/04 10:04:05;;;;;;;24.77;12.05;;;11.80;98.00;;;;;;5030900;28;20071;-88
2021/04/04 10:06:36;;;;;;;25.73;11.67;;;11.70;97.70;;;;;;5046077;28;20063;-88
2021/04/04 10:09:08;;;;;;;26.10;11.20;;;11.80;97.60;;;;;;5030350;28;20048;-88
2021/04/04 10:11:36;;;;;;;23.83;12.75;;;11.80;97.50;;;;;;5034290;28;20041;-88
2021/04/04 10:14:07;;;;;;;24.15;11.85;;;11.90;97.70;;;;;;5049754;28;20049;-88
2021/04/04 10:16:34;;;;;;;27.73;11.85;;;12.00;97.30;;;;;;5029947;28;20045;-87
2021/04/04 10:19:20;;;;;;;29.00;13.13;;;12.10;97.10;;;;;;5029704;28;20053;-87
2021/04/04 10:22:01;;;;;;;25.58;12.90;;;12.10;95.60;;;;;;5029483;28;20049;-87
2021/04/04 10:24:36;;;;;;;30.83;11.98;;;12.00;95.90;;;;;;5031018;28;20045;-87
2021/04/04 10:27:22;;;;;;;23.73;11.85;;;12.00;96.10;;;;;;5026454;28;20100;-88
2021/04/04 10:30:01;;;;;;;27.02;12.65;;;12.20;96.40;;;;;;5030390;28;20050;-90
2021/04/04 10:32:27;;;;;;;20.15;11.38;;;12.20;96.40;;;;;;5039385;28;20045;-88
2021/04/04 10:34:54;;;;;;;25.90;12.00;;;12.40;96.30;;;;;;5028472;28;20045;-88
2021/04/04 10:37:25;;;;;;;22.85;11.45;;;12.40;95.70;;;;;;5029940;28;20045;-88
2021/04/04 10:39:59;;;;;;;26.40;12.20;;;12.50;95.80;;;;;;5036398;28;20079;-88
2021/04/04 10:42:27;;;;;;;22.38;11.70;;;12.60;95.40;;;;;;5028690;28;20037;-88
2021/04/04 10:45:13;;;;;;;21.52;11.75;;;12.70;95.50;;;;;;5024393;28;20394;-88
2021/04/04 10:47:41;;;;;;;26.42;11.63;;;12.80;94.70;;;;;;5020414;28;20054;-88
2021/04/04 10:50:15;;;;;;;23.35;10.93;;;12.80;95.00;;;;;;5028132;28;20491;-88
2021/04/04 10:52:43;;;;;;;26.35;11.70;;;12.90;95.20;;;;;;5029499;28;20042;-88
2021/04/04 10:55:11;;;;;;;;;;;12.90;95.30;;;;;;5030744;28;20072;-88
2021/04/04 10:57:39;;;;;;;24.17;11.85;;;12.80;94.50;;;;;;5027595;28;19953;-88
2021/04/04 11:00:09;;;;;;;22.08;11.40;;;12.80;94.60;;;;;;5026552;28;20044;-88
2021/04/04 11:02:39;;;;;;;26.13;12.10;;;12.90;94.40;;;;;;5012300;28;20117;-88
2021/04/04 11:05:07;;;;;;;22.35;10.60;;;12.90;94.40;;;;;;5013583;28;20041;-88
2021/04/04 11:07:35;;;;;;;26.70;12.80;;;12.90;94.40;;;;;;5017611;28;20057;-88
2021/04/04 11:10:07;;;;;;;22.73;11.32;;;12.90;94.70;;;;;;5026918;28;20508;-88
2021/04/04 11:12:38;;;;;;;21.52;10.48;;;13.00;94.60;;;;;;5028192;28;20042;-88
2021/04/04 11:15:09;;;;;;;26.45;11.60;;;13.10;94.90;;;;;;5022565;28;20046;-89
2021/04/04 11:17:37;;;;;;;25.08;11.68;;;13.20;94.70;;;;;;5033252;28;20442;-88
2021/04/04 11:20:06;;;;;;;21.13;11.52;;;13.20;94.60;;;;;;5032925;28;20107;-88
2021/04/04 11:22:33;;;;;;;23.02;11.50;;;13.30;94.20;;;;;;5032136;28;20052;-89
2021/04/04 11:25:07;;;;;;;20.42;11.13;;;13.40;94.20;;;;;;5029656;28;20071;-87
2021/04/04 11:27:41;;;;;;;21.35;12.43;;;13.50;94.00;;;;;;5022435;28;20045;-88
2021/04/04 11:30:13;;;;;;;25.77;12.27;;;13.50;93.80;;;;;;5023066;28;20593;-88
2021/04/04 11:32:48;;;;;;;22.13;11.20;;;13.60;94.00;;;;;;5032372;28;20055;-88
2021/04/04 11:35:19;;;;;;;23.08;10.68;;;13.70;94.00;;;;;;5027756;28;20453;-88
2021/04/04 11:37:45;;;;;;;21.20;11.00;;;13.80;94.00;;;;;;5031905;28;20366;-86
2021/04/04 11:40:26;;;;;;;20.00;10.98;;;13.90;93.90;;;;;;5024537;28;20049;-86
2021/04/04 11:43:28;;;;;;;20.13;11.73;;;13.90;92.50;;;;;;5034503;28;20075;-85
2021/04/04 11:45:55;;;;;;;18.13;10.85;;;14.00;93.10;;;;;;5038362;28;20044;-86
2021/04/04 11:48:29;;;;;;;20.75;10.85;;;13.90;93.40;;;;;;5038798;28;20527;-87
2021/04/04 11:51:11;;;;;;;21.30;10.48;;;14.00;93.50;;;;;;5030732;28;20049;-86
2021/04/04 11:53:48;;;;;;;21.55;11.07;;;14.10;93.30;;;;;;5030165;28;20053;-86
2021/04/04 11:56:41;;;;;;;19.75;10.73;;;14.20;93.30;;;;;;5031207;28;20042;-87
2021/04/04 11:59:09;;;;;;;22.38;10.27;;;14.20;93.00;;;;;;5032957;28;20045;-88
2021/04/04 12:01:35;;;;;;;16.50;9.75;;;14.30;93.10;;;;;;5033611;28;20045;-87
2021/04/04 12:04:37;;;;;;;20.48;9.65;;;14.30;92.70;;;;;;5031057;28;20354;-87
2021/04/04 12:07:08;;;;;;;18.17;9.70;;;14.30;91.20;;;;;;4970921;28;20137;-87
2021/04/04 12:09:36;;;;;;;21.92;9.82;;;14.40;92.20;;;;;;4978929;28;20043;-87
2021/04/04 12:12:04;;;;;;;18.75;9.52;;;14.40;91.90;;;;;;4963042;28;20046;-88
2021/04/04 12:14:43;;;;;;;21.48;11.05;;;14.40;91.50;;;;;;4971957;28;20038;-87
2021/04/04 12:17:10;;;;;;;24.15;10.77;;;14.50;91.80;;;;;;4973854;28;20049;-88
2021/04/04 12:19:37;;;;;;;20.30;9.68;;;14.50;91.90;;;;;;4970883;28;20137;-87
2021/04/04 12:22:03;;;;;;;17.50;9.70;;;14.60;92.00;;;;;;4980830;28;20150;-87
2021/04/04 12:24:56;;;;;;;19.80;10.00;;;14.60;91.50;;;;;;4987064;28;20129;-87
2021/04/04 12:27:24;;;;;;;18.38;9.30;;;14.50;91.00;;;;;;4967534;28;20046;-86
2021/04/04 12:29:54;;;;;;;22.27;10.13;;;14.50;91.10;;;;;;4972344;28;20042;-87
2021/04/04 12:32:30;;;;;;;17.60;8.60;;;14.50;91.30;;;;;;4968427;28;20445;-87
2021/04/04 12:35:02;;;;;;;17.08;8.93;;;14.60;91.40;;;;;;4971952;28;20070;-87
2021/04/04 12:37:31;;;;;;;13.07;8.05;;;14.60;91.50;;;;;;4972252;28;20034;-88
2021/04/04 12:40:01;;;;;;;19.30;8.77;;;14.80;91.70;;;;;;4971584;28;20050;-90
2021/04/04 12:42:32;;;;;;;25.27;9.38;;;14.80;91.60;;;;;;4995229;28;20052;-88
2021/04/04 12:45:03;;;;;;;18.95;9.20;;;14.90;91.60;;;;;;5029746;28;20132;-87
2021/04/04 12:47:30;;;;;;;19.25;8.88;;;15.00;91.60;;;;;;5023861;28;20051;-87
2021/04/04 12:50:06;;;;;;;19.63;8.70;;;15.00;90.60;;;;;;5029960;28;20111;-87
2021/04/04 12:52:39;;;;;;;16.05;7.75;;;15.00;90.80;;;;;;5027812;28;20041;-87
2021/04/04 12:55:09;;;;;;;17.90;8.40;;;15.10;90.90;;;;;;5047995;28;20060;-87
2021/04/04 12:57:36;;;;;;;19.98;8.32;;;15.20;89.50;;;;;;5030467;28;20072;-88
2021/04/04 13:00:06;;;;;;;21.48;10.10;;;15.10;90.20;;;;;;5038685;28;20065;-87
2021/04/04 13:02:32;;;;;;;19.52;8.82;;;15.20;90.20;;;;;;5045972;28;20124;-87
2021/04/04 13:04:59;;;;;;;20.60;8.38;;;15.20;90.50;;;;;;5026954;28;20041;-88
2021/04/04 13:07:26;;;;;;;20.70;8.30;;;15.20;90.30;;;;;;5011863;28;20042;-87
2021/04/04 13:10:11;;;;;;;18.13;8.85;;;15.10;90.40;;;;;;5015819;28;20057;-87
2021/04/04 13:12:39;;;;;;;20.02;7.53;;;15.10;90.30;;;;;;5020961;28;20065;-87
2021/04/04 13:15:23;;;;;;;18.00;7.68;;;15.10;90.30;;;;;;5023926;28;20048;-87
2021/04/04 13:17:49;;;;;;;14.07;7.25;;;15.20;89.80;;;;;;5024011;28;20053;-87